Time;durP1;ratioP1;P1;durP2;ratioP2;P2;SDS_P1;SDS_P2;PMS_P1;PMS_P2;Temp;Humidity;BMP_temperature;BMP_pressure;BME280_temperature;BME280_humidity;BME280_pressure;Samples;Min_cycle;Max_cycle;Signal;HPM_P1;HPM_P2
2022/03/24 00:00:06;;;;;;;16.42;8.20;;;12.90;99.90;;;;;;5030910;28;20052;-55
2022/03/24 00:02:39;;;;;;;13.75;8.90;;;12.90;99.90;;;;;;5050001;28;20486;-55
2022/03/24 00:05:08;;;;;;;16.50;9.40;;;12.90;99.90;;;;;;5052734;28;20037;-55
2022/03/24 00:07:35;;;;;;;16.30;9.60;;;12.90;99.90;;;;;;5055015;28;20033;-55
2022/03/24 00:10:04;;;;;;;16.67;9.43;;;12.90;99.90;;;;;;5045438;28;20053;-56
2022/03/24 00:12:32;;;;;;;19.30;10.20;;;12.90;99.90;;;;;;5054462;28;20560;-55
2022/03/24 00:14:59;;;;;;;15.20;9.32;;;12.90;99.90;;;;;;5035637;28;20041;-56
2022/03/24 00:17:27;;;;;;;23.02;10.60;;;12.90;99.90;;;;;;5054933;28;20052;-55
2022/03/24 00:19:54;;;;;;;20.73;10.23;;;12.90;99.90;;;;;;5049880;28;20049;-55
2022/03/24 00:22:22;;;;;;;23.60;9.18;;;12.90;99.90;;;;;;5054655;28;20041;-56
2022/03/24 00:24:49;;;;;;;17.27;8.95;;;12.80;99.90;;;;;;5054742;28;20045;-56
2022/03/24 00:27:17;;;;;;;15.38;8.25;;;12.90;99.90;;;;;;5055075;28;20135;-54
2022/03/24 00:29:48;;;;;;;16.60;8.68;;;12.90;99.90;;;;;;5055789;28;20040;-57
2022/03/24 00:32:15;;;;;;;15.60;7.63;;;12.80;99.90;;;;;;5038418;28;20043;-55
2022/03/24 00:34:45;;;;;;;17.02;10.57;;;12.80;99.90;;;;;;5038236;28;20055;-56
2022/03/24 00:37:12;;;;;;;30.00;11.10;;;12.80;99.90;;;;;;5038141;28;20103;-55
2022/03/24 00:39:40;;;;;;;14.05;8.48;;;12.80;99.90;;;;;;5038026;28;20048;-55
2022/03/24 00:42:12;;;;;;;20.63;10.07;;;12.80;99.90;;;;;;5055855;28;20049;-55
2022/03/24 00:44:44;;;;;;;15.43;9.85;;;12.80;99.90;;;;;;5055838;28;20565;-55
2022/03/24 00:47:13;;;;;;;19.63;8.35;;;12.80;99.90;;;;;;5038034;28;20098;-54
2022/03/24 00:49:42;;;;;;;17.77;8.82;;;12.80;99.90;;;;;;5037834;28;20434;-54
2022/03/24 00:52:11;;;;;;;15.50;8.65;;;12.80;99.90;;;;;;5055524;28;20392;-55
2022/03/24 00:54:38;;;;;;;17.05;8.10;;;12.80;99.90;;;;;;5055648;28;20041;-54
2022/03/24 00:57:07;;;;;;;13.75;9.13;;;12.80;99.90;;;;;;5055519;28;20081;-54
2022/03/24 00:59:37;;;;;;;20.40;9.63;;;12.80;99.90;;;;;;5037599;28;20083;-56
2022/03/24 01:02:09;;;;;;;15.88;7.65;;;12.80;99.90;;;;;;5021071;28;20140;-54
2022/03/24 01:04:38;;;;;;;15.15;8.95;;;12.80;99.90;;;;;;5055346;28;20041;-54
2022/03/24 01:07:06;;;;;;;16.20;10.35;;;12.80;99.90;;;;;;5037477;28;20368;-56
2022/03/24 01:09:34;;;;;;;20.30;8.93;;;12.80;99.90;;;;;;5037402;28;20037;-56
2022/03/24 01:12:02;;;;;;;15.68;8.60;;;12.80;99.90;;;;;;5021097;28;20499;-54
2022/03/24 01:14:32;;;;;;;13.23;8.93;;;12.70;99.90;;;;;;5037366;28;20129;-54
2022/03/24 01:17:01;;;;;;;14.25;9.05;;;12.70;99.90;;;;;;5055086;28;20041;-54
2022/03/24 01:19:28;;;;;;;15.98;9.35;;;12.70;99.90;;;;;;5054975;28;20049;-53
2022/03/24 01:21:56;;;;;;;24.05;9.18;;;12.70;99.90;;;;;;5037037;28;20136;-55
2022/03/24 01:24:23;;;;;;;19.67;9.57;;;12.70;99.90;;;;;;5055059;28;20074;-54
2022/03/24 01:26:51;;;;;;;13.00;9.25;;;12.70;99.90;;;;;;5054919;28;20045;-55
2022/03/24 01:29:21;;;;;;;16.17;10.30;;;12.60;99.90;;;;;;5037303;28;20107;-55
2022/03/24 01:31:49;;;;;;;14.55;9.18;;;12.60;99.90;;;;;;5037386;28;20045;-55
2022/03/24 01:34:17;;;;;;;17.40;10.35;;;12.60;99.90;;;;;;5055152;28;20067;-54
2022/03/24 01:36:45;;;;;;;15.40;9.23;;;12.50;99.90;;;;;;5020456;28;20143;-55
2022/03/24 01:39:13;;;;;;;11.95;7.97;;;12.50;99.90;;;;;;5036938;28;20079;-55
2022/03/24 01:41:40;;;;;;;12.82;8.05;;;12.50;99.90;;;;;;5054788;28;20057;-55
2022/03/24 01:44:13;;;;;;;15.02;8.60;;;12.50;99.90;;;;;;5037279;28;20087;-55
2022/03/24 01:46:59;;;;;;;17.45;9.30;;;12.40;99.90;;;;;;5054883;28;20091;-52
2022/03/24 01:49:29;;;;;;;20.58;9.57;;;12.40;99.90;;;;;;5054543;28;20479;-54
2022/03/24 01:51:58;;;;;;;13.90;7.72;;;12.30;99.90;;;;;;5020070;28;20045;-53
2022/03/24 01:54:31;;;;;;;14.15;8.90;;;12.30;99.90;;;;;;5036701;28;20087;-54
2022/03/24 01:57:00;;;;;;;12.98;8.40;;;12.30;99.90;;;;;;5036675;28;20045;-52
2022/03/24 01:59:28;;;;;;;15.45;8.05;;;12.30;99.90;;;;;;5036633;28;20088;-55
2022/03/24 02:01:57;;;;;;;13.38;9.38;;;12.30;99.90;;;;;;5054308;28;20426;-56
2022/03/24 02:04:25;;;;;;;15.75;8.85;;;12.30;99.90;;;;;;5036520;28;20040;-54
2022/03/24 02:06:53;;;;;;;13.00;8.90;;;12.20;99.90;;;;;;5036492;28;20044;-53
2022/03/24 02:09:21;;;;;;;15.18;8.98;;;12.20;99.90;;;;;;5036206;28;20052;-55
2022/03/24 02:11:48;;;;;;;15.48;8.77;;;12.20;99.90;;;;;;5036597;28;20119;-54
2022/03/24 02:14:17;;;;;;;20.30;9.35;;;12.20;99.90;;;;;;5036331;28;20079;-56
2022/03/24 02:16:47;;;;;;;14.65;10.20;;;12.10;99.90;;;;;;5036194;28;20033;-54
2022/03/24 02:19:21;;;;;;;15.32;8.57;;;12.10;99.90;;;;;;5035741;28;20041;-52
2022/03/24 02:21:52;;;;;;;18.60;9.90;;;12.00;99.90;;;;;;5035955;28;20135;-54
2022/03/24 02:24:22;;;;;;;12.98;8.68;;;12.00;99.90;;;;;;5019981;28;20049;-55
2022/03/24 02:26:51;;;;;;;16.05;9.07;;;12.00;99.90;;;;;;5054069;28;20048;-54
2022/03/24 02:29:25;;;;;;;15.18;7.88;;;11.90;99.90;;;;;;5036211;28;20052;-55
2022/03/24 02:31:53;;;;;;;14.25;9.13;;;11.90;99.90;;;;;;5053704;28;20398;-56
2022/03/24 02:34:37;;;;;;;15.80;9.00;;;11.90;99.90;;;;;;5053671;28;20498;-54
2022/03/24 02:37:10;;;;;;;13.70;8.95;;;11.90;99.90;;;;;;5053580;28;20089;-52
2022/03/24 02:39:43;;;;;;;13.45;8.27;;;11.90;99.90;;;;;;5035947;28;20045;-55
2022/03/24 02:42:14;;;;;;;13.68;8.15;;;11.90;99.90;;;;;;5052478;28;20460;-56
2022/03/24 02:44:48;;;;;;;15.77;8.70;;;11.80;99.90;;;;;;5035714;28;20057;-52
2022/03/24 02:47:16;;;;;;;14.38;9.52;;;11.80;99.80;;;;;;5053587;28;20586;-56
2022/03/24 02:49:46;;;;;;;13.18;8.63;;;11.80;99.80;;;;;;5053474;28;20493;-54
2022/03/24 02:52:14;;;;;;;14.88;8.57;;;11.80;99.80;;;;;;5035818;28;20071;-55
2022/03/24 02:54:42;;;;;;;13.05;8.27;;;11.80;99.70;;;;;;5053408;28;20403;-56
2022/03/24 02:57:10;;;;;;;18.40;9.73;;;11.80;99.70;;;;;;5053485;28;20048;-56
2022/03/24 02:59:39;;;;;;;14.15;7.88;;;11.80;99.50;;;;;;5053257;28;20055;-55
2022/03/24 03:02:13;;;;;;;15.20;8.35;;;11.80;99.30;;;;;;5053521;28;20045;-55
2022/03/24 03:04:43;;;;;;;14.10;7.70;;;11.70;99.20;;;;;;5053495;28;20072;-55
2022/03/24 03:07:12;;;;;;;14.45;8.80;;;11.70;99.20;;;;;;5053358;28;20194;-55
2022/03/24 03:09:41;;;;;;;13.10;7.60;;;11.70;99.10;;;;;;5053108;28;20037;-54
2022/03/24 03:12:10;;;;;;;15.35;8.32;;;11.70;99.10;;;;;;5053427;28;20055;-54
2022/03/24 03:14:39;;;;;;;14.68;8.40;;;11.60;99.10;;;;;;5053167;28;20395;-56
2022/03/24 03:17:07;;;;;;;11.68;7.22;;;11.60;99.00;;;;;;5035762;28;20037;-54
2022/03/24 03:19:35;;;;;;;12.82;7.55;;;11.60;98.90;;;;;;5053065;28;20049;-54
2022/03/24 03:22:05;;;;;;;10.77;7.40;;;11.60;98.80;;;;;;5053311;28;20060;-56
2022/03/24 03:24:33;;;;;;;16.13;7.97;;;11.60;98.60;;;;;;5053122;28;20429;-55
2022/03/24 03:27:00;;;;;;;16.27;9.18;;;11.60;98.50;;;;;;5053101;28;20143;-54
2022/03/24 03:29:28;;;;;;;14.70;8.65;;;11.60;98.50;;;;;;5036684;28;20361;-53
2022/03/24 03:31:57;;;;;;;10.93;7.70;;;11.60;98.40;;;;;;5057191;28;20041;-53
2022/03/24 03:34:25;;;;;;;12.50;7.82;;;11.50;98.30;;;;;;5057001;28;20561;-53
2022/03/24 03:36:54;;;;;;;13.15;9.35;;;11.50;98.30;;;;;;5056935;28;20059;-55
2022/03/24 03:39:23;;;;;;;11.88;7.35;;;11.50;98.20;;;;;;5057129;28;20102;-55
2022/03/24 03:41:52;;;;;;;13.32;7.05;;;11.50;98.20;;;;;;5056958;28;20505;-54
2022/03/24 03:44:20;;;;;;;16.27;7.95;;;11.40;98.10;;;;;;5057046;28;20128;-53
2022/03/24 03:46:48;;;;;;;12.95;8.70;;;11.40;97.90;;;;;;5056881;28;20045;-54
2022/03/24 03:49:16;;;;;;;16.95;8.25;;;11.40;97.80;;;;;;5056748;28;20561;-56
2022/03/24 03:51:43;;;;;;;8.40;6.80;;;11.40;97.90;;;;;;5056729;28;20051;-55
2022/03/24 03:54:11;;;;;;;12.90;7.07;;;11.40;97.80;;;;;;5056663;28;20079;-55
2022/03/24 03:56:39;;;;;;;14.57;6.97;;;11.30;97.80;;;;;;5039038;28;20051;-54
2022/03/24 03:59:07;;;;;;;12.85;8.52;;;11.40;97.80;;;;;;5056546;28;20072;-54
2022/03/24 04:01:36;;;;;;;10.48;6.68;;;11.30;97.80;;;;;;5056620;28;20040;-54
2022/03/24 04:04:05;;;;;;;13.40;6.95;;;11.30;97.80;;;;;;5056802;28;20174;-55
2022/03/24 04:06:32;;;;;;;10.48;8.05;;;11.30;97.80;;;;;;5056437;28;20055;-54
2022/03/24 04:09:00;;;;;;;11.85;6.47;;;11.30;97.80;;;;;;5038844;28;20053;-54
2022/03/24 04:11:27;;;;;;;12.25;8.00;;;11.30;97.90;;;;;;5056703;28;20403;-54
2022/03/24 04:13:55;;;;;;;14.65;8.13;;;11.30;97.90;;;;;;5056762;28;20464;-55
2022/03/24 04:16:25;;;;;;;14.75;8.07;;;11.30;97.90;;;;;;5038788;28;20051;-54
2022/03/24 04:18:53;;;;;;;12.57;7.45;;;11.30;98.00;;;;;;5056146;28;20055;-55
2022/03/24 04:21:21;;;;;;;15.07;8.10;;;11.30;98.00;;;;;;5038319;28;20495;-56
2022/03/24 04:23:49;;;;;;;13.82;7.43;;;11.30;98.00;;;;;;5056090;28;20131;-55
2022/03/24 04:26:17;;;;;;;18.05;8.27;;;11.30;98.10;;;;;;5056096;28;20132;-55
2022/03/24 04:28:44;;;;;;;9.73;6.82;;;11.30;98.00;;;;;;5056053;28;20134;-55
2022/03/24 04:31:12;;;;;;;16.77;7.35;;;11.40;98.10;;;;;;5055899;28;20544;-55
2022/03/24 04:33:40;;;;;;;11.32;7.47;;;11.30;98.10;;;;;;5055901;28;20045;-54
2022/03/24 04:36:10;;;;;;;15.27;7.38;;;11.30;98.10;;;;;;5055844;28;20069;-55
2022/03/24 04:38:39;;;;;;;13.05;7.50;;;11.30;98.20;;;;;;5038480;28;20049;-53
2022/03/24 04:41:06;;;;;;;12.13;7.68;;;11.30;98.20;;;;;;5037561;28;20079;-56
2022/03/24 04:43:34;;;;;;;15.40;7.97;;;11.30;98.10;;;;;;5055772;28;20032;-54
2022/03/24 04:46:02;;;;;;;10.35;6.80;;;11.30;98.10;;;;;;5055975;28;20083;-52
2022/03/24 04:48:36;;;;;;;12.48;7.70;;;11.30;98.20;;;;;;5055624;28;20041;-56
2022/03/24 04:51:05;;;;;;;10.73;7.80;;;11.30;98.40;;;;;;5055790;28;20221;-56
2022/03/24 04:53:33;;;;;;;13.38;9.18;;;11.30;98.40;;;;;;5055685;28;20095;-55
2022/03/24 04:56:03;;;;;;;11.95;7.15;;;11.40;98.40;;;;;;5055526;28;20051;-53
2022/03/24 04:58:31;;;;;;;12.50;8.35;;;11.40;98.30;;;;;;5037685;28;20461;-55
2022/03/24 05:00:59;;;;;;;12.70;7.15;;;11.40;98.30;;;;;;5021250;28;20102;-55
2022/03/24 05:03:27;;;;;;;13.25;8.10;;;11.40;98.20;;;;;;5037826;28;20487;-55
2022/03/24 05:05:55;;;;;;;13.88;8.27;;;11.50;98.10;;;;;;5055871;28;20079;-56
2022/03/24 05:08:22;;;;;;;12.38;6.95;;;11.60;98.00;;;;;;5055334;28;20045;-54
2022/03/24 05:10:50;;;;;;;14.30;7.60;;;11.70;97.90;;;;;;5055196;28;20045;-54
2022/03/24 05:13:18;;;;;;;16.63;8.00;;;11.80;97.70;;;;;;5037418;28;20135;-56
2022/03/24 05:15:45;;;;;;;12.73;8.10;;;11.90;97.50;;;;;;5055134;28;20052;-56
2022/03/24 05:18:13;;;;;;;11.65;7.65;;;12.00;97.30;;;;;;5055233;28;20145;-55
2022/03/24 05:20:40;;;;;;;9.32;6.80;;;12.10;97.10;;;;;;5037508;28;20049;-55
2022/03/24 05:23:08;;;;;;;17.85;8.50;;;12.30;97.00;;;;;;5021114;28;20136;-55
2022/03/24 05:25:35;;;;;;;12.38;7.22;;;12.40;96.80;;;;;;5055038;28;20041;-56
2022/03/24 05:28:04;;;;;;;13.65;8.40;;;12.50;96.60;;;;;;5037425;28;20040;-55
2022/03/24 05:30:32;;;;;;;13.52;7.72;;;12.60;96.40;;;;;;5054672;28;20041;-55
2022/03/24 05:33:00;;;;;;;15.25;7.93;;;12.80;96.30;;;;;;5055139;28;20056;-57
2022/03/24 05:35:29;;;;;;;13.10;8.27;;;12.90;96.20;;;;;;5054803;28;20045;-55
2022/03/24 05:37:57;;;;;;;10.88;6.97;;;13.00;96.10;;;;;;5037586;28;20132;-55
2022/03/24 05:40:26;;;;;;;12.05;7.32;;;13.10;96.00;;;;;;5055057;28;20044;-54
2022/03/24 05:42:53;;;;;;;12.45;8.13;;;13.20;95.90;;;;;;5054768;28;20037;-55
2022/03/24 05:45:21;;;;;;;11.38;6.40;;;13.40;95.80;;;;;;5037128;28;20107;-52
2022/03/24 05:47:48;;;;;;;14.23;8.23;;;13.50;95.70;;;;;;5054845;28;20049;-56
2022/03/24 05:50:29;;;;;;;10.70;7.55;;;13.60;95.50;;;;;;5020542;28;20048;-55
2022/03/24 05:53:11;;;;;;;11.90;6.88;;;13.80;95.40;;;;;;5035902;28;20495;-56
2022/03/24 05:55:40;;;;;;;11.77;6.63;;;13.90;95.30;;;;;;5054484;28;20074;-54
2022/03/24 05:58:08;;;;;;;13.07;7.25;;;14.00;95.20;;;;;;5054924;28;20094;-55
2022/03/24 06:00:37;;;;;;;10.70;7.18;;;14.20;95.20;;;;;;5020353;28;20053;-57
2022/03/24 06:03:06;;;;;;;9.98;7.03;;;14.40;95.10;;;;;;5054292;28;20049;-55
2022/03/24 06:05:33;;;;;;;11.75;7.43;;;14.50;94.90;;;;;;5054153;28;20051;-56
2022/03/24 06:08:01;;;;;;;16.30;8.23;;;14.70;94.80;;;;;;5054247;28;20088;-56
2022/03/24 06:10:30;;;;;;;11.98;7.38;;;14.90;94.80;;;;;;5036449;28;20052;-54
2022/03/24 06:12:58;;;;;;;10.48;7.25;;;15.00;94.70;;;;;;5054173;28;20045;-53
2022/03/24 06:15:26;;;;;;;11.40;7.63;;;15.20;94.60;;;;;;5054172;28;20057;-56
2022/03/24 06:17:53;;;;;;;10.48;7.13;;;15.30;94.50;;;;;;5054186;28;20049;-56
2022/03/24 06:20:22;;;;;;;11.43;7.13;;;15.40;94.50;;;;;;5053920;28;20409;-58
2022/03/24 06:22:52;;;;;;;13.45;6.80;;;15.60;94.40;;;;;;5054026;28;20487;-56
2022/03/24 06:25:20;;;;;;;12.82;7.38;;;15.70;94.20;;;;;;5053929;28;20056;-55
2022/03/24 06:27:49;;;;;;;13.73;7.53;;;15.90;94.20;;;;;;5053936;28;20096;-55
2022/03/24 06:30:17;;;;;;;10.30;6.72;;;16.00;94.10;;;;;;5053826;28;20041;-57
2022/03/24 06:32:46;;;;;;;15.13;10.23;;;16.10;94.00;;;;;;5053847;28;20051;-55
2022/03/24 06:35:14;;;;;;;15.25;10.55;;;16.20;93.80;;;;;;5036228;28;20072;-57
2022/03/24 06:37:42;;;;;;;13.07;9.27;;;16.40;93.80;;;;;;5036158;28;20068;-56
2022/03/24 06:40:11;;;;;;;14.02;9.00;;;16.50;93.60;;;;;;5036205;28;20041;-55
2022/03/24 06:42:41;;;;;;;13.13;8.35;;;16.60;93.60;;;;;;5053727;28;20053;-56
2022/03/24 06:45:10;;;;;;;17.52;9.02;;;16.70;93.40;;;;;;5036031;28;20041;-56
2022/03/24 06:47:41;;;;;;;14.30;7.65;;;16.80;93.30;;;;;;5035920;28;20091;-56
2022/03/24 06:50:12;;;;;;;10.98;7.07;;;17.00;93.10;;;;;;5035809;28;20450;-56
2022/03/24 06:52:43;;;;;;;12.10;7.38;;;17.10;93.00;;;;;;5036260;28;20052;-56
2022/03/24 06:55:14;;;;;;;13.85;7.32;;;17.30;92.90;;;;;;5053768;28;20052;-55
2022/03/24 06:57:42;;;;;;;11.88;7.65;;;17.40;92.80;;;;;;5053522;28;20556;-56
2022/03/24 07:00:13;;;;;;;15.18;7.20;;;17.50;92.60;;;;;;5053501;28;20055;-57
2022/03/24 07:02:42;;;;;;;13.68;7.60;;;17.60;92.50;;;;;;5053510;28;20122;-56
2022/03/24 07:05:13;;;;;;;14.55;7.32;;;17.70;92.40;;;;;;5053446;28;20052;-54
2022/03/24 07:07:43;;;;;;;12.13;7.18;;;17.80;92.30;;;;;;5035936;28;20541;-56
2022/03/24 07:10:11;;;;;;;10.27;6.60;;;17.90;92.40;;;;;;5053289;28;20494;-57
2022/03/24 07:12:38;;;;;;;15.88;6.72;;;18.00;92.30;;;;;;5053180;28;20492;-57
2022/03/24 07:15:11;;;;;;;9.90;7.13;;;18.10;92.30;;;;;;5053310;28;20135;-57
2022/03/24 07:17:39;;;;;;;12.80;7.35;;;18.20;92.30;;;;;;5053360;28;20049;-58
2022/03/24 07:20:08;;;;;;;12.25;7.15;;;18.40;92.40;;;;;;5053326;28;20107;-57
2022/03/24 07:22:37;;;;;;;11.70;7.18;;;18.50;92.50;;;;;;5035626;28;20055;-58
2022/03/24 07:25:08;;;;;;;14.70;7.47;;;18.60;92.50;;;;;;5053304;28;20208;-57
2022/03/24 07:27:37;;;;;;;13.40;6.30;;;18.80;92.60;;;;;;5053353;28;20071;-56
2022/03/24 07:30:05;;;;;;;12.18;7.20;;;18.90;92.70;;;;;;5053159;28;20045;-56
2022/03/24 07:32:33;;;;;;;11.35;6.38;;;18.90;92.70;;;;;;5035646;28;20135;-57
2022/03/24 07:35:01;;;;;;;8.02;5.78;;;18.90;92.60;;;;;;5035657;28;20049;-55
2022/03/24 07:37:29;;;;;;;12.45;6.13;;;18.90;92.60;;;;;;5053161;28;20051;-58
2022/03/24 07:39:57;;;;;;;12.45;7.38;;;19.00;92.60;;;;;;5035966;28;20063;-57
2022/03/24 07:42:24;;;;;;;9.88;5.90;;;19.10;92.60;;;;;;5053188;28;20045;-57
2022/03/24 07:44:52;;;;;;;11.98;5.85;;;19.20;92.40;;;;;;5053042;28;20041;-57
2022/03/24 07:47:19;;;;;;;10.60;6.68;;;19.40;92.30;;;;;;5053233;28;20383;-57
2022/03/24 07:49:47;;;;;;;13.95;5.53;;;19.40;91.80;;;;;;5053129;28;20069;-56
2022/03/24 07:52:15;;;;;;;11.65;5.80;;;19.50;91.30;;;;;;5052941;28;20045;-55
2022/03/24 07:54:50;;;;;;;13.43;6.18;;;19.50;91.20;;;;;;5035488;28;20080;-55
2022/03/24 07:57:17;;;;;;;8.77;5.53;;;19.60;91.70;;;;;;5053027;28;20041;-57
2022/03/24 07:59:45;;;;;;;12.18;5.82;;;19.60;91.80;;;;;;5053091;28;20079;-57
2022/03/24 08:02:13;;;;;;;9.98;6.00;;;19.70;91.60;;;;;;5035293;28;20140;-57
2022/03/24 08:04:40;;;;;;;10.50;5.85;;;19.70;91.10;;;;;;5035313;28;20033;-56
2022/03/24 08:07:08;;;;;;;11.70;5.60;;;19.70;90.50;;;;;;5035485;28;20045;-56
2022/03/24 08:09:36;;;;;;;10.02;6.10;;;19.70;90.00;;;;;;5052899;28;20041;-57
2022/03/24 08:12:09;;;;;;;11.43;5.65;;;19.80;88.00;;;;;;5035113;28;20447;-57
2022/03/24 08:14:36;;;;;;;13.40;6.10;;;19.90;88.30;;;;;;5052784;28;20136;-56
2022/03/24 08:17:04;;;;;;;9.27;5.03;;;19.90;88.50;;;;;;5054572;28;20064;-55
2022/03/24 08:19:32;;;;;;;9.88;5.95;;;19.90;88.50;;;;;;5056181;28;20063;-55
2022/03/24 08:21:59;;;;;;;8.95;4.90;;;20.00;87.20;;;;;;5036476;28;20041;-56
2022/03/24 08:24:27;;;;;;;8.57;5.45;;;20.00;87.70;;;;;;5036270;28;20095;-56
2022/03/24 08:26:54;;;;;;;9.55;5.20;;;20.10;86.90;;;;;;5002970;28;20485;-54
2022/03/24 08:29:22;;;;;;;10.43;4.75;;;20.10;86.10;;;;;;5036308;28;20369;-57
2022/03/24 08:31:50;;;;;;;18.20;5.80;;;20.20;85.30;;;;;;5036167;28;20049;-56
2022/03/24 08:34:17;;;;;;;8.20;4.88;;;20.20;83.30;;;;;;5036153;28;20125;-56
2022/03/24 08:36:45;;;;;;;7.55;4.63;;;20.10;81.40;;;;;;5036421;28;20053;-55
2022/03/24 08:39:13;;;;;;;10.48;4.20;;;20.10;80.90;;;;;;5018486;28;20053;-57
2022/03/24 08:41:40;;;;;;;9.80;5.65;;;20.20;79.50;;;;;;5036026;28;20048;-55
2022/03/24 08:44:08;;;;;;;8.35;4.00;;;20.10;79.40;;;;;;5018582;28;20120;-56
2022/03/24 08:46:35;;;;;;;9.10;5.20;;;20.20;79.10;;;;;;5018420;28;20081;-56
2022/03/24 08:49:03;;;;;;;10.20;4.82;;;20.20;78.80;;;;;;5035887;28;20049;-56
2022/03/24 08:51:30;;;;;;;6.85;4.57;;;20.30;78.40;;;;;;5018072;28;20058;-56
2022/03/24 08:53:58;;;;;;;7.03;4.60;;;20.40;78.20;;;;;;5035824;28;20050;-57
2022/03/24 08:56:26;;;;;;;12.48;5.10;;;20.40;79.10;;;;;;5018191;28;20399;-56
2022/03/24 08:58:53;;;;;;;10.77;5.95;;;20.50;79.10;;;;;;5035818;28;20087;-58
2022/03/24 09:01:21;;;;;;;8.40;4.70;;;20.40;78.30;;;;;;5034475;28;20423;-58
2022/03/24 09:03:51;;;;;;;9.65;5.78;;;20.50;77.10;;;;;;5020473;28;20103;-58
2022/03/24 09:06:19;;;;;;;11.00;5.78;;;20.40;78.80;;;;;;5027714;28;20499;-58
2022/03/24 09:08:46;;;;;;;5.30;4.10;;;20.50;79.20;;;;;;5034575;28;20055;-58
2022/03/24 09:11:14;;;;;;;7.40;4.65;;;20.40;74.60;;;;;;5031796;28;20570;-58
2022/03/24 09:13:42;;;;;;;8.48;5.07;;;20.60;73.70;;;;;;5018094;28;20589;-58
2022/03/24 09:16:11;;;;;;;10.95;4.60;;;20.70;77.40;;;;;;5035673;28;20132;-58
2022/03/24 09:18:38;;;;;;;9.10;5.60;;;20.60;77.60;;;;;;5035442;28;20044;-58
2022/03/24 09:21:06;;;;;;;10.75;6.43;;;20.50;79.00;;;;;;5047985;28;20503;-58
2022/03/24 09:23:33;;;;;;;9.52;4.93;;;20.60;78.50;;;;;;5055379;28;20067;-58
2022/03/24 09:26:01;;;;;;;9.48;4.65;;;20.80;78.00;;;;;;5037456;28;20123;-58
2022/03/24 09:28:43;;;;;;;7.82;5.20;;;20.70;77.90;;;;;;5054861;28;20110;-58
2022/03/24 09:31:10;;;;;;;10.48;5.30;;;20.80;77.80;;;;;;5054948;28;20476;-58
2022/03/24 09:33:40;;;;;;;16.67;5.53;;;20.80;75.50;;;;;;5055056;28;20072;-58
2022/03/24 09:36:08;;;;;;;13.77;6.20;;;20.80;75.40;;;;;;5037521;28;20106;-58
2022/03/24 09:38:36;;;;;;;10.60;5.72;;;20.90;75.60;;;;;;5037312;28;20057;-58
2022/03/24 09:41:06;;;;;;;11.93;6.55;;;20.90;74.30;;;;;;5037039;28;20053;-58
2022/03/24 09:43:37;;;;;;;8.05;5.32;;;21.00;74.30;;;;;;5020868;28;20076;-58
2022/03/24 09:46:04;;;;;;;9.20;5.32;;;21.00;73.10;;;;;;5037142;28;20041;-58
2022/03/24 09:48:32;;;;;;;16.75;5.20;;;21.00;72.70;;;;;;5054665;28;20037;-59
2022/03/24 09:51:00;;;;;;;6.75;4.07;;;21.10;72.40;;;;;;5054599;28;20439;-58
2022/03/24 09:53:27;;;;;;;7.78;4.07;;;21.00;69.40;;;;;;5054759;28;20037;-59
2022/03/24 09:55:56;;;;;;;6.45;3.88;;;20.90;66.50;;;;;;5054640;28;20446;-59
2022/03/24 09:58:30;;;;;;;7.22;4.10;;;20.90;67.90;;;;;;5054613;28;20045;-58
2022/03/24 10:00:59;;;;;;;7.95;4.20;;;21.00;71.00;;;;;;5054439;28;20045;-58
2022/03/24 10:03:27;;;;;;;10.55;4.65;;;21.10;71.30;;;;;;5037181;28;20069;-58
2022/03/24 10:06:04;;;;;;;8.45;4.10;;;21.00;70.30;;;;;;5054550;28;20128;-58
2022/03/24 10:08:33;;;;;;;6.97;4.50;;;21.00;70.90;;;;;;5054334;28;20102;-58
2022/03/24 10:11:06;;;;;;;8.65;5.05;;;20.80;71.10;;;;;;5054264;28;20056;-58
2022/03/24 10:13:53;;;;;;;5.78;3.67;;;20.70;71.40;;;;;;5054426;28;20459;-57
2022/03/24 10:16:32;;;;;;;;;;;20.70;70.10;;;;;;5055054;28;20033;-58
2022/03/24 10:19:06;;;;;;;7.85;4.28;;;20.60;67.40;;;;;;5054061;28;20366;-58
2022/03/24 10:21:36;;;;;;;9.48;4.75;;;20.60;68.20;;;;;;5054162;28;20557;-58
2022/03/24 10:24:10;;;;;;;9.93;3.58;;;20.80;68.90;;;;;;5036250;28;20411;-58
2022/03/24 10:26:49;;;;;;;7.40;3.53;;;20.80;66.30;;;;;;5036552;28;20044;-58
2022/03/24 10:29:20;;;;;;;7.72;3.78;;;20.80;65.20;;;;;;5054087;28;20037;-58
2022/03/24 10:31:53;;;;;;;10.10;3.65;;;20.80;64.70;;;;;;5053840;28;20045;-58
2022/03/24 10:34:41;;;;;;;7.07;3.25;;;20.80;63.30;;;;;;5053939;28;20041;-58
2022/03/24 10:37:17;;;;;;;7.43;3.50;;;20.90;63.60;;;;;;5054124;28;20045;-58
2022/03/24 10:40:06;;;;;;;5.40;2.88;;;20.90;64.20;;;;;;5053342;28;20045;-58
2022/03/24 10:42:36;;;;;;;6.38;3.03;;;20.80;63.90;;;;;;5035933;28;20053;-58
2022/03/24 10:45:24;;;;;;;6.30;3.72;;;20.90;63.00;;;;;;5053796;28;20052;-58
2022/03/24 10:47:56;;;;;;;4.63;2.63;;;20.80;64.20;;;;;;5036102;28;20029;-58
2022/03/24 10:50:37;;;;;;;5.18;2.72;;;20.90;65.10;;;;;;5036082;28;20052;-58
2022/03/24 10:53:09;;;;;;;5.03;2.95;;;20.80;62.90;;;;;;5053773;28;20467;-58
2022/03/24 10:55:51;;;;;;;6.85;3.10;;;20.60;61.00;;;;;;5053785;28;20068;-58
2022/03/24 10:58:42;;;;;;;4.53;3.03;;;20.70;61.20;;;;;;5036057;28;20137;-58
2022/03/24 11:01:11;;;;;;;7.35;3.35;;;20.60;61.40;;;;;;5035772;28;20037;-58
2022/03/24 11:03:40;;;;;;;5.03;2.50;;;20.60;62.30;;;;;;5053436;28;20041;-58
2022/03/24 11:06:17;;;;;;;4.22;2.70;;;20.60;63.10;;;;;;5053417;28;20552;-58
2022/03/24 11:08:52;;;;;;;6.45;2.67;;;20.50;62.20;;;;;;5053530;28;20504;-58
2022/03/24 11:11:20;;;;;;;7.45;3.13;;;20.50;59.90;;;;;;5053469;28;20044;-58
2022/03/24 11:14:03;;;;;;;11.52;3.20;;;20.40;60.60;;;;;;5053401;28;20395;-58
2022/03/24 11:16:33;;;;;;;4.55;2.70;;;20.40;62.60;;;;;;5053405;28;20037;-58
2022/03/24 11:19:14;;;;;;;5.22;2.70;;;20.50;62.00;;;;;;5053535;28;20423;-58
2022/03/24 11:21:42;;;;;;;8.68;3.08;;;20.50;62.70;;;;;;5052695;28;20056;-58
2022/03/24 11:24:10;;;;;;;6.55;3.15;;;20.60;61.90;;;;;;5035762;28;20065;-58
2022/03/24 11:26:38;;;;;;;6.88;3.35;;;20.50;61.80;;;;;;5035716;28;20045;-58
2022/03/24 11:29:05;;;;;;;4.97;2.70;;;20.30;62.90;;;;;;5053310;28;20045;-58
2022/03/24 11:31:33;;;;;;;4.50;2.95;;;20.30;65.10;;;;;;5053270;28;20491;-57
2022/03/24 11:34:04;;;;;;;4.78;2.53;;;20.20;64.20;;;;;;5053550;28;20064;-58
2022/03/24 11:36:32;;;;;;;7.10;4.05;;;20.20;63.50;;;;;;5053211;28;20045;-58
2022/03/24 11:39:04;;;;;;;6.65;3.10;;;20.20;63.90;;;;;;5035401;28;20060;-58
2022/03/24 11:41:39;;;;;;;9.23;3.33;;;20.20;65.90;;;;;;5053079;28;20041;-58
2022/03/24 11:44:18;;;;;;;8.87;4.00;;;20.30;67.80;;;;;;5053429;28;20044;-58
2022/03/24 11:46:56;;;;;;;8.25;4.78;;;20.20;68.40;;;;;;5053239;28;20097;-58
2022/03/24 11:49:25;;;;;;;6.45;3.70;;;20.00;68.50;;;;;;5053111;28;20037;-58
2022/03/24 11:51:59;;;;;;;6.22;4.20;;;20.00;71.00;;;;;;5056235;28;20041;-58
2022/03/24 11:54:37;;;;;;;8.88;3.92;;;20.00;69.70;;;;;;5057139;28;20097;-58
2022/03/24 11:57:26;;;;;;;11.63;5.38;;;19.90;70.00;;;;;;5057112;28;20106;-58
2022/03/24 12:00:12;;;;;;;8.77;4.78;;;19.90;72.70;;;;;;5039158;28;20043;-59
2022/03/24 12:02:45;;;;;;;11.60;4.33;;;19.90;73.10;;;;;;5056868;28;20041;-59
2022/03/24 12:05:13;;;;;;;13.57;5.78;;;19.80;70.20;;;;;;5039068;28;20402;-58
2022/03/24 12:07:41;;;;;;;8.55;4.75;;;19.80;68.10;;;;;;5056691;28;20480;-59
2022/03/24 12:10:14;;;;;;;9.10;5.20;;;19.80;70.90;;;;;;5056850;28;20452;-59
2022/03/24 12:13:27;;;;;;;10.13;5.43;;;19.80;72.50;;;;;;5038720;28;20131;-58
2022/03/24 12:16:12;;;;;;;8.65;4.40;;;19.70;72.90;;;;;;5053302;28;20059;-58
2022/03/24 12:18:42;;;;;;;14.73;5.68;;;19.70;72.70;;;;;;5056402;28;20132;-59
2022/03/24 12:21:20;;;;;;;9.35;3.80;;;19.80;72.20;;;;;;5038552;28;20060;-59
2022/03/24 12:24:06;;;;;;;9.35;4.78;;;19.80;74.10;;;;;;5056540;28;20072;-59
2022/03/24 12:26:51;;;;;;;6.03;4.13;;;19.90;75.30;;;;;;5056387;28;20045;-58
2022/03/24 12:29:20;;;;;;;8.02;4.55;;;19.90;75.00;;;;;;5056354;28;20291;-59
2022/03/24 12:32:13;;;;;;;11.73;5.28;;;19.90;75.80;;;;;;5038429;28;20067;-59
2022/03/24 12:34:49;;;;;;;8.40;3.60;;;19.90;74.40;;;;;;5055968;28;20045;-59
2022/03/24 12:37:23;;;;;;;;;;;19.90;73.90;;;;;;5056450;28;20048;-58
2022/03/24 12:40:12;;;;;;;8.18;3.90;;;19.90;75.10;;;;;;5055946;28;19928;-58
2022/03/24 12:42:47;;;;;;;10.13;4.07;;;19.90;76.20;;;;;;5056041;28;20040;-58
2022/03/24 12:45:25;;;;;;;6.55;3.63;;;19.90;76.80;;;;;;5056260;28;20048;-58
2022/03/24 12:47:59;;;;;;;7.28;4.00;;;19.90;76.80;;;;;;5055548;28;20060;-58
2022/03/24 12:50:29;;;;;;;12.55;5.50;;;19.70;76.40;;;;;;5055676;28;20045;-59
2022/03/24 12:52:57;;;;;;;8.75;4.60;;;19.70;77.40;;;;;;5055898;28;20049;-59
2022/03/24 12:55:27;;;;;;;7.95;4.10;;;19.60;76.80;;;;;;5055585;28;20482;-58